Time;durP1;ratioP1;P1;durP2;ratioP2;P2;SDS_P1;SDS_P2;PMS_P1;PMS_P2;Temp;Humidity;BMP_temperature;BMP_pressure;BME280_temperature;BME280_humidity;BME280_pressure;Samples;Min_cycle;Max_cycle;Signal;HPM_P1;HPM_P2
2022/03/15 00:01:39;;;;;;;7.40;6.33;;;7.10;99.90;;;;;;7380760;19;20335;-79
2022/03/15 00:04:06;;;;;;;7.97;7.10;;;6.90;99.90;;;;;;7388119;19;20336;-79
2022/03/15 00:06:34;;;;;;;7.60;6.90;;;6.90;99.90;;;;;;7380153;19;20801;-79
2022/03/15 00:09:00;;;;;;;8.60;7.55;;;6.90;99.90;;;;;;7388317;19;20312;-79
2022/03/15 00:11:25;;;;;;;8.50;7.03;;;6.90;99.90;;;;;;7385705;19;20349;-79
2022/03/15 00:13:52;;;;;;;7.72;6.95;;;6.90;99.90;;;;;;7368348;19;20304;-78
2022/03/15 00:16:18;;;;;;;7.78;7.03;;;6.90;99.90;;;;;;7389813;19;20332;-79
2022/03/15 00:18:43;;;;;;;7.80;7.00;;;7.10;99.90;;;;;;7387464;19;20333;-79
2022/03/15 00:21:10;;;;;;;7.97;7.07;;;6.90;99.90;;;;;;7388360;19;20313;-79
2022/03/15 00:23:36;;;;;;;7.33;6.63;;;6.90;99.90;;;;;;7384207;19;20366;-78
2022/03/15 00:26:01;;;;;;;7.87;7.07;;;6.90;99.90;;;;;;7388650;19;20843;-78
2022/03/15 00:28:30;;;;;;;7.10;6.40;;;6.90;99.90;;;;;;7387655;19;20334;-79
2022/03/15 00:30:57;;;;;;;7.88;6.70;;;6.90;99.90;;;;;;7393580;19;20421;-79
2022/03/15 00:33:25;;;;;;;7.47;6.77;;;6.90;99.90;;;;;;7400099;19;20304;-78
2022/03/15 00:35:51;;;;;;;8.00;7.10;;;6.80;99.90;;;;;;7392536;19;20329;-78
2022/03/15 00:38:16;;;;;;;8.00;7.20;;;6.90;99.90;;;;;;7392482;19;20326;-78
2022/03/15 00:40:43;;;;;;;7.67;6.83;;;6.90;99.90;;;;;;7390514;19;20331;-79
2022/03/15 00:43:09;;;;;;;7.50;6.70;;;6.90;99.90;;;;;;7390580;19;20388;-79
2022/03/15 00:45:35;;;;;;;9.30;6.80;;;6.90;99.90;;;;;;7389887;19;20872;-79
2022/03/15 00:48:00;;;;;;;6.40;5.63;;;6.90;99.90;;;;;;7387780;19;20330;-78
2022/03/15 00:50:29;;;;;;;6.90;6.20;;;6.90;99.90;;;;;;7395392;19;20363;-79
2022/03/15 00:52:56;;;;;;;7.47;6.40;;;7.00;99.90;;;;;;7395099;19;20325;-79
2022/03/15 00:55:22;;;;;;;6.83;6.13;;;6.90;99.90;;;;;;7394034;19;20678;-79
2022/03/15 00:57:47;;;;;;;7.83;6.87;;;7.00;99.90;;;;;;7387630;19;20321;-78
2022/03/15 01:00:15;;;;;;;7.80;6.88;;;6.90;99.90;;;;;;7387168;19;20422;-79
2022/03/15 01:02:40;;;;;;;8.50;6.95;;;6.90;99.90;;;;;;7385516;19;20305;-78
2022/03/15 01:05:06;;;;;;;6.63;6.03;;;6.90;99.90;;;;;;7387989;19;21124;-78
2022/03/15 01:07:32;;;;;;;6.95;6.13;;;6.80;99.90;;;;;;7366867;19;20322;-79
2022/03/15 01:10:00;;;;;;;7.00;6.30;;;6.80;99.90;;;;;;7388503;19;20777;-78
2022/03/15 01:12:26;;;;;;;6.97;6.28;;;6.70;99.90;;;;;;7385268;19;20662;-78
2022/03/15 01:14:52;;;;;;;6.17;5.57;;;6.60;99.90;;;;;;7384796;19;20319;-78
2022/03/15 01:17:19;;;;;;;6.60;5.93;;;6.60;99.90;;;;;;7386276;19;20316;-78
2022/03/15 01:19:44;;;;;;;6.73;6.03;;;6.60;99.90;;;;;;7387884;19;20315;-80
2022/03/15 01:22:10;;;;;;;8.05;6.70;;;6.60;99.90;;;;;;7385033;19;20363;-79
2022/03/15 01:24:36;;;;;;;6.63;5.73;;;6.50;99.90;;;;;;7388855;19;20346;-79
2022/03/15 01:27:01;;;;;;;6.80;6.05;;;6.60;99.90;;;;;;7387994;19;20339;-78
2022/03/15 01:29:28;;;;;;;7.37;6.47;;;6.60;99.90;;;;;;7388327;19;20330;-78
2022/03/15 01:31:54;;;;;;;7.00;6.30;;;6.60;99.90;;;;;;7388033;19;20319;-79
2022/03/15 01:34:22;;;;;;;7.45;6.15;;;6.60;99.90;;;;;;7390661;19;20316;-78
2022/03/15 01:36:48;;;;;;;6.70;5.97;;;6.60;99.90;;;;;;7389929;19;20328;-79
2022/03/15 01:39:14;;;;;;;7.03;6.10;;;6.60;99.90;;;;;;7388608;19;20375;-79
2022/03/15 01:41:41;;;;;;;8.18;6.70;;;6.60;99.90;;;;;;7387581;19;20411;-77
2022/03/15 01:44:15;;;;;;;8.25;6.85;;;6.60;99.90;;;;;;7390069;19;20382;-77
2022/03/15 01:46:40;;;;;;;7.90;5.60;;;6.60;99.90;;;;;;7288635;19;2004363;-80
2022/03/15 01:49:06;;;;;;;7.10;5.90;;;6.60;99.90;;;;;;7389291;19;20321;-78
2022/03/15 01:51:31;;;;;;;7.50;6.70;;;6.60;99.90;;;;;;7389643;19;20297;-78
2022/03/15 01:53:57;;;;;;;8.57;6.10;;;6.60;99.90;;;;;;7386958;19;20346;-79
2022/03/15 01:56:24;;;;;;;8.15;6.95;;;6.50;99.90;;;;;;7387400;19;20308;-78
2022/03/15 01:58:51;;;;;;;6.75;5.93;;;6.60;99.90;;;;;;7366483;19;20329;-78
2022/03/15 02:01:17;;;;;;;6.43;5.80;;;6.50;99.90;;;;;;7385323;19;20863;-79
2022/03/15 02:03:43;;;;;;;8.07;6.60;;;6.50;99.90;;;;;;7385060;19;20289;-78
2022/03/15 02:06:09;;;;;;;7.47;6.40;;;6.50;99.90;;;;;;7387457;19;20307;-79
2022/03/15 02:08:35;;;;;;;7.05;6.35;;;6.50;99.90;;;;;;7386006;19;20406;-78
2022/03/15 02:11:01;;;;;;;7.35;6.43;;;6.50;99.90;;;;;;7386631;19;20402;-78
2022/03/15 02:13:29;;;;;;;6.88;6.15;;;6.60;99.90;;;;;;7385119;19;20307;-79
2022/03/15 02:15:55;;;;;;;7.05;6.35;;;6.60;99.90;;;;;;7387514;19;20325;-77
2022/03/15 02:18:23;;;;;;;7.00;6.30;;;6.60;99.90;;;;;;7383075;19;20326;-79
2022/03/15 02:20:49;;;;;;;8.63;6.97;;;6.60;99.90;;;;;;7386827;19;20336;-79
2022/03/15 02:23:16;;;;;;;6.73;5.97;;;6.60;99.90;;;;;;7384916;19;20859;-78
2022/03/15 02:25:42;;;;;;;6.55;5.90;;;6.60;99.90;;;;;;7385115;19;20415;-78
2022/03/15 02:28:07;;;;;;;6.60;5.75;;;6.60;99.90;;;;;;7385951;19;20784;-79
2022/03/15 02:30:34;;;;;;;7.87;6.70;;;6.60;99.90;;;;;;7386230;19;20321;-78
2022/03/15 02:33:00;;;;;;;7.03;6.32;;;6.60;99.90;;;;;;7389253;19;20383;-79
2022/03/15 02:35:26;;;;;;;6.40;5.80;;;6.60;99.90;;;;;;7388284;19;20316;-78
2022/03/15 02:37:51;;;;;;;7.53;6.70;;;6.60;99.90;;;;;;7385925;19;20435;-79
2022/03/15 02:40:17;;;;;;;6.97;6.20;;;6.60;99.90;;;;;;7385807;19;20333;-79
2022/03/15 02:42:43;;;;;;;6.87;6.17;;;6.60;99.90;;;;;;7384141;19;20332;-79
2022/03/15 02:45:10;;;;;;;7.38;5.78;;;6.60;99.90;;;;;;7385909;19;20839;-78
2022/03/15 02:47:37;;;;;;;6.18;5.57;;;6.60;99.90;;;;;;7385175;19;20328;-79
2022/03/15 02:50:03;;;;;;;7.38;6.50;;;6.60;99.90;;;;;;7385102;19;20301;-79
2022/03/15 02:52:28;;;;;;;8.60;6.43;;;6.60;99.90;;;;;;7383255;19;20886;-79
2022/03/15 02:54:55;;;;;;;7.45;6.65;;;6.60;99.90;;;;;;7386756;19;20349;-78
2022/03/15 02:57:24;;;;;;;7.30;6.13;;;6.60;99.90;;;;;;7384547;19;20301;-79
2022/03/15 02:59:51;;;;;;;7.88;6.47;;;6.60;99.90;;;;;;7384872;19;20383;-78
2022/03/15 03:02:17;;;;;;;7.18;6.43;;;6.60;99.90;;;;;;7385054;19;20344;-78
2022/03/15 03:04:43;;;;;;;7.43;6.27;;;6.50;99.90;;;;;;7367788;19;20293;-79
2022/03/15 03:07:12;;;;;;;6.45;5.85;;;6.50;99.90;;;;;;7383154;19;20337;-79
2022/03/15 03:09:38;;;;;;;7.18;6.35;;;6.40;99.90;;;;;;7386328;19;20301;-79
2022/03/15 03:12:03;;;;;;;6.72;5.75;;;6.40;99.90;;;;;;7360119;19;20316;-79
2022/03/15 03:14:29;;;;;;;6.30;5.70;;;6.30;99.90;;;;;;7386748;19;20321;-79
2022/03/15 03:16:55;;;;;;;7.88;6.60;;;6.30;99.90;;;;;;7393181;19;20344;-79
2022/03/15 03:19:20;;;;;;;6.00;5.40;;;6.40;99.90;;;;;;7394836;19;20316;-78
2022/03/15 03:21:48;;;;;;;6.53;5.82;;;6.20;99.90;;;;;;7389066;19;20838;-77
2022/03/15 03:24:19;;;;;;;7.87;6.40;;;6.20;99.90;;;;;;7385334;19;20844;-79
2022/03/15 03:26:44;;;;;;;7.47;6.07;;;6.20;99.90;;;;;;7386501;19;20333;-79
2022/03/15 03:29:10;;;;;;;6.75;5.72;;;6.10;99.90;;;;;;7386050;19;20420;-78
2022/03/15 03:31:39;;;;;;;6.07;5.47;;;6.00;99.90;;;;;;7384379;19;20317;-79
2022/03/15 03:34:05;;;;;;;6.03;5.47;;;6.00;99.90;;;;;;7383328;19;20308;-80
2022/03/15 03:36:36;;;;;;;7.07;5.50;;;5.90;99.90;;;;;;7381622;19;20669;-78
2022/03/15 03:39:03;;;;;;;6.72;5.97;;;5.90;99.90;;;;;;7289237;19;2004718;-77
2022/03/15 03:41:29;;;;;;;7.60;6.30;;;5.90;99.90;;;;;;7390652;19;20331;-78
2022/03/15 03:43:57;;;;;;;7.13;6.43;;;5.80;99.90;;;;;;7389519;19;20318;-79
2022/03/15 03:46:22;;;;;;;7.13;6.32;;;5.70;99.90;;;;;;7389743;19;20364;-79
2022/03/15 03:48:50;;;;;;;7.63;6.50;;;5.70;99.90;;;;;;7390103;19;20331;-78
2022/03/15 03:51:20;;;;;;;8.70;6.78;;;5.60;99.90;;;;;;7389303;19;20311;-79
2022/03/15 03:53:45;;;;;;;6.30;5.60;;;5.60;99.90;;;;;;7389381;19;20388;-78
2022/03/15 03:56:12;;;;;;;6.80;6.07;;;5.50;99.90;;;;;;7390327;19;20324;-78
2022/03/15 03:58:37;;;;;;;7.03;6.33;;;5.40;99.90;;;;;;7389555;19;20324;-78
2022/03/15 04:01:03;;;;;;;7.60;6.13;;;5.40;99.90;;;;;;7389664;19;20637;-79
2022/03/15 04:03:31;;;;;;;7.13;5.75;;;5.40;99.90;;;;;;7364243;19;20312;-78
2022/03/15 04:06:03;;;;;;;9.57;6.07;;;5.30;99.90;;;;;;7390738;19;20332;-79
2022/03/15 04:08:29;;;;;;;8.20;5.65;;;5.40;99.90;;;;;;7389194;19;20328;-78
2022/03/15 04:10:54;;;;;;;10.68;5.70;;;5.20;99.90;;;;;;7390845;19;20677;-78
2022/03/15 04:13:20;;;;;;;6.13;5.40;;;5.20;99.90;;;;;;7392364;19;20319;-78
2022/03/15 04:15:46;;;;;;;9.02;5.90;;;5.20;99.90;;;;;;7393950;19;20317;-78
2022/03/15 04:18:12;;;;;;;6.05;5.45;;;5.20;99.90;;;;;;7390854;19;20305;-79
2022/03/15 04:20:40;;;;;;;8.47;5.83;;;5.10;99.90;;;;;;7393231;19;20839;-79
2022/03/15 04:23:06;;;;;;;6.43;5.75;;;5.10;99.90;;;;;;7388560;19;20316;-78
2022/03/15 04:25:31;;;;;;;6.53;5.20;;;5.10;99.90;;;;;;7378339;19;20462;-78
2022/03/15 04:28:00;;;;;;;6.78;5.75;;;5.00;99.90;;;;;;7388677;19;20301;-79
2022/03/15 04:30:29;;;;;;;10.02;6.07;;;5.00;99.90;;;;;;7390009;19;20372;-79
2022/03/15 04:32:55;;;;;;;6.13;5.53;;;4.90;99.90;;;;;;7387719;19;20870;-79
2022/03/15 04:35:21;;;;;;;6.30;5.32;;;5.00;99.90;;;;;;7391666;19;20304;-79
2022/03/15 04:37:47;;;;;;;7.00;5.73;;;4.90;99.90;;;;;;7392808;19;20304;-77
2022/03/15 04:40:12;;;;;;;8.50;6.13;;;4.90;99.90;;;;;;7394509;19;20309;-79
2022/03/15 04:42:38;;;;;;;9.43;5.93;;;4.90;99.90;;;;;;7388697;19;20319;-78
2022/03/15 04:45:05;;;;;;;7.13;5.73;;;4.90;99.90;;;;;;7368488;19;20316;-78
2022/03/15 04:47:34;;;;;;;5.97;5.35;;;4.90;99.90;;;;;;7385041;19;20328;-78
2022/03/15 04:49:59;;;;;;;6.23;4.63;;;4.90;99.90;;;;;;7375236;19;20844;-78
2022/03/15 04:52:25;;;;;;;5.93;4.63;;;4.80;99.90;;;;;;7387547;19;20356;-79
2022/03/15 04:54:50;;;;;;;5.37;4.63;;;4.70;99.90;;;;;;7369245;19;20341;-78
2022/03/15 04:57:16;;;;;;;4.88;4.30;;;4.80;99.90;;;;;;7388885;19;20322;-78
2022/03/15 04:59:42;;;;;;;5.33;4.83;;;4.80;99.90;;;;;;7388600;19;20317;-78
2022/03/15 05:02:07;;;;;;;6.63;5.43;;;4.70;99.90;;;;;;7386955;19;20317;-76
2022/03/15 05:04:34;;;;;;;6.00;4.87;;;4.70;99.90;;;;;;7389266;19;20308;-78
2022/03/15 05:07:00;;;;;;;5.18;4.47;;;4.60;99.90;;;;;;7387675;19;20337;-78
2022/03/15 05:09:25;;;;;;;4.78;4.10;;;4.60;99.90;;;;;;7388931;19;20320;-79
2022/03/15 05:11:51;;;;;;;6.93;4.57;;;4.60;99.90;;;;;;7388680;19;20333;-79
2022/03/15 05:14:17;;;;;;;5.80;4.30;;;4.60;99.90;;;;;;7390815;19;20328;-79
2022/03/15 05:16:42;;;;;;;5.33;4.30;;;4.50;99.90;;;;;;7389848;19;20380;-80
2022/03/15 05:19:08;;;;;;;10.73;8.37;;;4.50;99.90;;;;;;7392118;19;20309;-80
2022/03/15 05:21:33;;;;;;;7.85;6.15;;;4.50;99.90;;;;;;7389545;19;20309;-80
2022/03/15 05:23:59;;;;;;;5.97;5.37;;;4.30;99.90;;;;;;7390147;19;20297;-80
2022/03/15 05:26:25;;;;;;;13.23;9.55;;;4.30;99.90;;;;;;7390801;19;20323;-80
2022/03/15 05:28:51;;;;;;;6.97;5.87;;;4.20;99.90;;;;;;7389674;19;20305;-82
2022/03/15 05:31:19;;;;;;;7.97;5.07;;;4.10;99.90;;;;;;7390402;19;20319;-80
2022/03/15 05:33:47;;;;;;;5.88;5.00;;;4.00;99.90;;;;;;7390335;19;20300;-78
2022/03/15 05:36:13;;;;;;;5.03;4.53;;;4.00;99.90;;;;;;7389670;19;20297;-80
2022/03/15 05:38:40;;;;;;;5.57;4.68;;;4.10;99.90;;;;;;7391232;19;20369;-79
2022/03/15 05:41:08;;;;;;;6.07;5.45;;;4.10;99.90;;;;;;7388706;19;20312;-81
2022/03/15 05:43:37;;;;;;;5.35;4.85;;;4.00;99.90;;;;;;7390343;19;20313;-79
2022/03/15 05:46:04;;;;;;;5.22;4.70;;;4.00;99.90;;;;;;7390446;19;20300;-80
2022/03/15 05:48:30;;;;;;;5.00;4.40;;;4.00;99.90;;;;;;7389318;19;20301;-78
2022/03/15 05:50:55;;;;;;;7.35;5.40;;;4.00;99.90;;;;;;7391624;19;20329;-79
2022/03/15 05:53:21;;;;;;;6.30;5.23;;;4.00;99.90;;;;;;7393876;19;20830;-78
2022/03/15 05:55:48;;;;;;;6.65;5.47;;;3.90;99.90;;;;;;7394407;19;20316;-79
2022/03/15 05:58:16;;;;;;;5.13;4.60;;;3.90;99.90;;;;;;7389122;19;20840;-79
2022/03/15 06:00:42;;;;;;;5.68;4.97;;;3.90;99.90;;;;;;7387128;19;20312;-78
2022/03/15 06:03:10;;;;;;;5.20;4.70;;;4.00;99.90;;;;;;7392991;19;20729;-79
2022/03/15 06:05:37;;;;;;;6.47;5.63;;;4.00;99.90;;;;;;7394859;19;20320;-79
2022/03/15 06:08:02;;;;;;;6.30;5.50;;;4.00;99.90;;;;;;7393293;19;20316;-79
2022/03/15 06:10:28;;;;;;;6.28;5.07;;;4.10;99.90;;;;;;7389641;19;20386;-79
2022/03/15 06:12:54;;;;;;;5.72;4.57;;;4.10;99.90;;;;;;7387920;19;20323;-79
2022/03/15 06:15:19;;;;;;;5.70;4.87;;;4.20;99.90;;;;;;7374723;19;20320;-80
2022/03/15 06:17:50;;;;;;;6.20;5.40;;;4.20;99.90;;;;;;7386777;19;20336;-79
2022/03/15 06:20:16;;;;;;;7.15;5.35;;;4.20;99.90;;;;;;7385774;19;20908;-79
2022/03/15 06:22:46;;;;;;;6.82;5.55;;;4.20;99.90;;;;;;7384386;19;20878;-80
2022/03/15 06:25:12;;;;;;;6.65;5.82;;;4.30;99.90;;;;;;7387088;19;20312;-81
2022/03/15 06:27:37;;;;;;;6.70;5.55;;;4.30;99.90;;;;;;7386311;19;20877;-80
2022/03/15 06:30:04;;;;;;;7.27;6.07;;;4.30;99.90;;;;;;7387384;19;20312;-79
2022/03/15 06:32:33;;;;;;;8.15;6.05;;;4.40;99.90;;;;;;7384459;19;20875;-79
2022/03/15 06:35:05;;;;;;;5.90;5.13;;;4.40;99.90;;;;;;7387343;19;20352;-79
2022/03/15 06:37:31;;;;;;;6.38;5.55;;;4.50;99.90;;;;;;7385453;19;20866;-78
2022/03/15 06:39:57;;;;;;;6.30;5.40;;;4.50;99.90;;;;;;7387039;19;20316;-79
2022/03/15 06:42:22;;;;;;;7.10;5.38;;;4.50;99.90;;;;;;7384642;19;20344;-78
2022/03/15 06:44:48;;;;;;;8.57;6.00;;;4.60;99.90;;;;;;7369454;19;20331;-80
2022/03/15 06:47:14;;;;;;;7.97;6.07;;;4.60;99.90;;;;;;7385740;19;20325;-79
2022/03/15 06:49:39;;;;;;;6.73;5.37;;;4.60;99.90;;;;;;7385698;19;20313;-80
2022/03/15 06:52:07;;;;;;;6.73;5.77;;;4.60;99.90;;;;;;7383602;19;20316;-80
2022/03/15 06:54:32;;;;;;;6.70;5.95;;;4.70;99.90;;;;;;7384468;19;20330;-79
2022/03/15 06:56:58;;;;;;;6.97;6.13;;;4.70;99.90;;;;;;7382994;19;20320;-80
2022/03/15 06:59:24;;;;;;;6.95;5.40;;;4.80;99.90;;;;;;7383728;19;20329;-78
2022/03/15 07:01:49;;;;;;;6.67;5.93;;;4.80;99.90;;;;;;7383215;19;20915;-79
2022/03/15 07:04:17;;;;;;;7.07;6.03;;;4.90;99.90;;;;;;7385191;19;20309;-79
2022/03/15 07:06:43;;;;;;;6.70;5.88;;;5.00;99.90;;;;;;7382587;19;20961;-78
2022/03/15 07:09:09;;;;;;;7.45;5.97;;;5.00;99.90;;;;;;7385271;19;20357;-80
2022/03/15 07:11:34;;;;;;;6.23;5.63;;;5.10;99.90;;;;;;7389992;19;20301;-79
2022/03/15 07:14:00;;;;;;;8.20;5.45;;;5.20;99.90;;;;;;7392908;19;20316;-79
2022/03/15 07:16:26;;;;;;;6.68;5.68;;;5.30;99.90;;;;;;7395413;19;20303;-79
2022/03/15 07:18:52;;;;;;;8.67;5.87;;;5.40;99.90;;;;;;7394271;19;20317;-79
2022/03/15 07:21:18;;;;;;;6.32;5.38;;;5.50;99.90;;;;;;7371718;19;20312;-79
2022/03/15 07:23:44;;;;;;;8.07;5.90;;;5.50;99.90;;;;;;7391761;19;20300;-79
2022/03/15 07:26:10;;;;;;;7.15;6.03;;;5.60;99.90;;;;;;7389982;19;20618;-79
2022/03/15 07:28:35;;;;;;;6.55;5.85;;;5.60;99.90;;;;;;7391771;19;20321;-80
2022/03/15 07:31:01;;;;;;;5.87;5.27;;;5.70;99.90;;;;;;7391585;19;20320;-79
2022/03/15 07:33:27;;;;;;;5.80;5.25;;;5.80;99.90;;;;;;7390890;19;20318;-79
2022/03/15 07:35:52;;;;;;;9.07;6.27;;;5.80;99.90;;;;;;7395999;19;20309;-79
2022/03/15 07:38:19;;;;;;;8.75;6.25;;;5.90;99.90;;;;;;7395404;19;20308;-78
2022/03/15 07:40:45;;;;;;;10.57;5.50;;;6.10;99.90;;;;;;7393848;19;20325;-79
2022/03/15 07:43:11;;;;;;;6.03;5.43;;;6.10;99.90;;;;;;7390616;19;20313;-79
2022/03/15 07:45:36;;;;;;;9.20;5.80;;;6.40;99.90;;;;;;7388562;19;20317;-78
2022/03/15 07:48:04;;;;;;;6.35;5.38;;;6.30;99.90;;;;;;7389551;19;20300;-81
2022/03/15 07:50:30;;;;;;;7.03;5.20;;;6.40;99.90;;;;;;7387379;19;20333;-79
2022/03/15 07:52:56;;;;;;;7.22;5.25;;;6.50;99.90;;;;;;7388219;19;20321;-79
2022/03/15 07:55:21;;;;;;;6.80;5.78;;;6.60;99.90;;;;;;7390909;19;20641;-79
2022/03/15 07:57:48;;;;;;;7.40;6.00;;;6.70;99.90;;;;;;7389433;19;20328;-80
2022/03/15 08:00:14;;;;;;;6.20;5.60;;;6.80;99.90;;;;;;7388720;19;20723;-80
2022/03/15 08:02:41;;;;;;;7.38;5.57;;;6.90;99.90;;;;;;7386387;19;20308;-80
2022/03/15 08:05:07;;;;;;;7.50;5.73;;;7.00;99.90;;;;;;7388810;19;20325;-80
2022/03/15 08:07:35;;;;;;;6.80;6.03;;;7.00;99.90;;;;;;7346080;19;20320;-79
2022/03/15 08:10:00;;;;;;;6.85;5.63;;;7.20;99.90;;;;;;7389664;19;20317;-78
2022/03/15 08:12:26;;;;;;;6.88;5.88;;;7.30;99.90;;;;;;7386349;19;20328;-79
2022/03/15 08:14:52;;;;;;;8.20;6.33;;;7.40;99.90;;;;;;7389761;19;20323;-79
2022/03/15 08:17:17;;;;;;;6.70;6.00;;;7.50;99.90;;;;;;7388015;19;20312;-80
2022/03/15 08:19:43;;;;;;;7.82;6.35;;;7.60;99.90;;;;;;7389706;19;20888;-78
2022/03/15 08:22:09;;;;;;;7.80;6.30;;;7.60;99.90;;;;;;7388356;19;20320;-80
2022/03/15 08:24:34;;;;;;;8.65;6.25;;;7.70;99.90;;;;;;7387345;19;20666;-80
2022/03/15 08:27:00;;;;;;;7.93;6.73;;;7.90;99.90;;;;;;7390436;19;20317;-78
2022/03/15 08:29:26;;;;;;;6.63;5.97;;;7.90;99.90;;;;;;7391787;19;20317;-81
2022/03/15 08:31:51;;;;;;;9.03;6.07;;;7.90;99.90;;;;;;7389638;19;20827;-79
2022/03/15 08:34:17;;;;;;;10.40;6.70;;;8.00;99.90;;;;;;7388273;19;20423;-77
2022/03/15 08:36:44;;;;;;;7.93;6.30;;;8.10;99.90;;;;;;7388334;19;20316;-80
2022/03/15 08:39:09;;;;;;;8.43;5.80;;;8.20;99.90;;;;;;7390401;19;21103;-80
2022/03/15 08:41:35;;;;;;;6.97;6.28;;;8.30;99.90;;;;;;7396178;19;20346;-80
2022/03/15 08:44:01;;;;;;;7.47;6.20;;;8.40;99.90;;;;;;7394171;19;20324;-79
2022/03/15 08:46:26;;;;;;;7.37;6.17;;;8.50;99.90;;;;;;7391413;19;20920;-80
2022/03/15 08:48:53;;;;;;;7.72;6.63;;;8.70;99.90;;;;;;7388337;19;20365;-79
2022/03/15 08:51:18;;;;;;;8.02;7.10;;;8.60;99.90;;;;;;7384241;19;20311;-79
2022/03/15 08:53:44;;;;;;;10.83;6.57;;;8.70;99.90;;;;;;7383519;19;20392;-80
2022/03/15 08:56:13;;;;;;;8.00;6.10;;;8.80;99.90;;;;;;7388365;19;20332;-80
2022/03/15 08:58:38;;;;;;;7.82;6.63;;;8.90;99.90;;;;;;7390437;19;20312;-80
2022/03/15 09:01:04;;;;;;;6.80;6.10;;;9.00;99.90;;;;;;7387486;19;20395;-79
2022/03/15 09:03:29;;;;;;;7.00;5.93;;;9.00;99.90;;;;;;7388591;19;20714;-79
2022/03/15 09:05:55;;;;;;;8.07;7.07;;;9.20;99.90;;;;;;7388062;19;20339;-79
2022/03/15 09:08:22;;;;;;;8.43;6.95;;;9.30;99.90;;;;;;7388844;19;20654;-79
2022/03/15 09:10:48;;;;;;;7.57;6.43;;;9.40;99.90;;;;;;7387853;19;20330;-80
2022/03/15 09:13:14;;;;;;;8.55;6.45;;;9.50;99.90;;;;;;7386378;19;20844;-79
2022/03/15 09:15:39;;;;;;;9.02;7.40;;;9.50;99.90;;;;;;7389552;19;20321;-80
2022/03/15 09:18:05;;;;;;;9.00;7.67;;;9.60;99.90;;;;;;7390352;19;20851;-80
2022/03/15 09:20:31;;;;;;;9.50;7.90;;;9.70;99.90;;;;;;7395029;19;20337;-79
2022/03/15 09:22:56;;;;;;;10.97;7.47;;;9.70;99.90;;;;;;7387615;19;20639;-80
2022/03/15 09:25:22;;;;;;;7.57;6.57;;;9.70;99.90;;;;;;7375825;19;20324;-79
2022/03/15 09:27:49;;;;;;;11.35;7.70;;;9.90;99.90;;;;;;7387978;19;20308;-80
2022/03/15 09:30:15;;;;;;;11.10;7.80;;;10.10;99.90;;;;;;7387866;19;20344;-79
2022/03/15 09:32:40;;;;;;;8.45;7.45;;;10.20;99.90;;;;;;7383690;19;20322;-79
2022/03/15 09:35:06;;;;;;;8.00;6.57;;;10.20;99.90;;;;;;7386017;19;20338;-78
2022/03/15 09:37:35;;;;;;;9.77;7.40;;;10.30;99.90;;;;;;7390012;19;20667;-79
2022/03/15 09:40:00;;;;;;;8.95;7.07;;;10.40;99.90;;;;;;7389316;19;20864;-80
2022/03/15 09:42:27;;;;;;;7.55;6.63;;;10.50;99.90;;;;;;7387877;19;20457;-79
2022/03/15 09:44:53;;;;;;;8.67;7.23;;;10.50;99.90;;;;;;7385875;19;20312;-79
2022/03/15 09:47:22;;;;;;;9.18;6.53;;;10.60;99.90;;;;;;7393751;19;20308;-80
2022/03/15 09:49:48;;;;;;;7.30;6.60;;;10.80;99.90;;;;;;7386454;19;20392;-81
2022/03/15 09:52:14;;;;;;;7.97;6.60;;;10.90;99.90;;;;;;7364855;19;20359;-81
2022/03/15 09:54:40;;;;;;;8.02;6.90;;;11.00;99.90;;;;;;7386958;19;20703;-80
2022/03/15 09:57:06;;;;;;;7.13;6.43;;;11.10;99.90;;;;;;7385989;19;20346;-81
2022/03/15 09:59:32;;;;;;;8.25;6.60;;;11.20;99.90;;;;;;7387012;19;20309;-81
2022/03/15 10:01:59;;;;;;;5.80;5.03;;;11.40;99.90;;;;;;7339476;19;20301;-79
2022/03/15 10:04:25;;;;;;;11.13;7.55;;;11.60;99.90;;;;;;7388727;19;20324;-82
2022/03/15 10:06:52;;;;;;;7.82;6.28;;;11.50;99.90;;;;;;7385991;19;20323;-81
2022/03/15 10:09:45;;;;;;;8.60;7.63;;;11.60;99.90;;;;;;7342545;19;20911;-80
2022/03/15 10:12:58;;;;;;;7.93;6.72;;;11.80;99.90;;;;;;7393569;19;20371;-81
2022/03/15 10:16:40;;;;;;;9.90;8.27;;;12.10;99.90;;;;;;7392783;19;20345;-81
2022/03/15 10:20:34;;;;;;;8.52;7.10;;;12.30;99.90;;;;;;7367908;19;20345;-81
2022/03/15 10:24:11;;;;;;;9.48;6.80;;;12.60;99.90;;;;;;7287479;19;2004438;-80
2022/03/15 10:27:04;;;;;;;8.50;7.57;;;12.80;99.90;;;;;;7370701;19;20336;-82
2022/03/15 10:30:28;;;;;;;10.75;7.93;;;12.80;99.90;;;;;;7339264;19;20696;-81
2022/03/15 10:34:02;;;;;;;11.55;7.88;;;12.70;99.90;;;;;;7363789;19;20888;-80
2022/03/15 10:37:36;;;;;;;10.35;8.15;;;12.80;99.90;;;;;;7264391;19;2004406;-81
2022/03/15 10:40:46;;;;;;;10.25;7.95;;;13.10;99.90;;;;;;7368021;19;20337;-80
2022/03/15 10:44:18;;;;;;;11.25;7.47;;;13.40;99.90;;;;;;7391487;19;20395;-81
2022/03/15 10:48:25;;;;;;;13.25;7.97;;;13.50;99.90;;;;;;7315137;19;20877;-81
2022/03/15 10:51:50;;;;;;;8.63;7.03;;;13.70;99.90;;;;;;7340110;19;20367;-81
2022/03/15 10:54:45;;;;;;;11.77;8.55;;;13.80;99.90;;;;;;7350208;19;20352;-80
2022/03/15 10:57:59;;;;;;;10.93;8.00;;;13.80;99.90;;;;;;7361187;19;20358;-81
2022/03/15 11:01:25;;;;;;;9.43;7.93;;;13.90;99.90;;;;;;7345843;19;20955;-80
2022/03/15 11:04:30;;;;;;;8.95;7.30;;;13.90;99.90;;;;;;7387322;19;20358;-81
2022/03/15 11:07:18;;;;;;;10.55;7.82;;;14.10;99.90;;;;;;7377610;19;20658;-80
2022/03/15 11:10:57;;;;;;;10.30;7.30;;;14.40;99.90;;;;;;7389435;19;20358;-81
2022/03/15 11:14:10;;;;;;;9.70;7.05;;;14.60;99.90;;;;;;7283560;19;2004750;-81
2022/03/15 11:18:00;;;;;;;8.88;6.97;;;14.80;99.90;;;;;;7301067;19;20378;-79
2022/03/15 11:21:06;;;;;;;8.10;6.95;;;14.80;99.90;;;;;;7368007;19;20384;-81
2022/03/15 11:24:34;;;;;;;7.17;6.33;;;15.20;99.90;;;;;;7278013;19;2004565;-80
2022/03/15 11:28:18;;;;;;;11.05;6.95;;;15.30;99.90;;;;;;7274845;19;20323;-80
2022/03/15 11:30:55;;;;;;;11.18;6.97;;;15.50;99.90;;;;;;7364610;19;20340;-80
2022/03/15 11:33:41;;;;;;;9.13;6.95;;;15.60;99.90;;;;;;7366224;19;20331;-78
2022/03/15 11:36:27;;;;;;;8.43;6.90;;;15.50;99.90;;;;;;7387685;19;20357;-81
2022/03/15 11:39:19;;;;;;;8.02;6.95;;;15.30;99.90;;;;;;7206635;19;20335;-80
2022/03/15 11:41:57;;;;;;;10.20;6.80;;;15.20;99.90;;;;;;7242457;19;2004408;-80
2022/03/15 11:45:26;;;;;;;8.45;6.72;;;15.10;99.90;;;;;;7365995;19;20774;-80
2022/03/15 11:49:04;;;;;;;8.98;6.55;;;15.30;99.90;;;;;;7313961;19;20331;-80
2022/03/15 11:52:01;;;;;;;8.25;6.63;;;15.60;99.90;;;;;;7273099;19;2004582;-82
2022/03/15 11:54:58;;;;;;;9.48;6.43;;;15.70;99.90;;;;;;7339603;19;20957;-79
2022/03/15 11:58:13;;;;;;;6.95;6.25;;;15.80;99.90;;;;;;7383017;19;20339;-81
2022/03/15 12:00:46;;;;;;;9.45;6.75;;;15.60;99.90;;;;;;7388168;19;20360;-81
2022/03/15 12:03:34;;;;;;;10.27;6.63;;;15.40;99.90;;;;;;7327018;19;20763;-80
2022/03/15 12:06:59;;;;;;;9.95;6.93;;;15.30;99.90;;;;;;7395747;19;20365;-81
2022/03/15 12:09:43;;;;;;;9.18;7.00;;;15.30;99.90;;;;;;7258368;19;2004266;-80
2022/03/15 12:12:47;;;;;;;12.07;7.00;;;15.40;99.90;;;;;;7327017;19;20346;-80
2022/03/15 12:15:57;;;;;;;9.95;6.90;;;15.90;99.90;;;;;;7285437;19;2004313;-82
2022/03/15 12:19:10;;;;;;;7.57;5.57;;;15.80;99.90;;;;;;7365535;19;20321;-81
2022/03/15 12:21:58;;;;;;;7.32;5.50;;;16.00;99.90;;;;;;7392349;19;20348;-82
2022/03/15 12:24:49;;;;;;;7.45;5.95;;;16.10;99.90;;;;;;7346582;19;20344;-80
2022/03/15 12:27:34;;;;;;;6.72;6.03;;;16.40;99.90;;;;;;7266976;19;2004549;-81
2022/03/15 12:30:16;;;;;;;8.67;6.10;;;16.30;99.90;;;;;;7198883;19;2004209;-80
2022/03/15 12:33:35;;;;;;;8.50;6.40;;;16.10;99.90;;;;;;7217174;19;2004228;-81
2022/03/15 12:37:15;;;;;;;6.63;5.93;;;15.80;99.90;;;;;;7296801;19;20340;-81
2022/03/15 12:41:04;;;;;;;8.25;6.00;;;15.70;99.90;;;;;;7321053;19;20309;-80
2022/03/15 12:44:41;;;;;;;8.83;6.23;;;16.20;99.90;;;;;;7214219;19;2004991;-80
2022/03/15 12:48:11;;;;;;;8.67;6.37;;;16.30;99.90;;;;;;7083163;19;2004342;-81
2022/03/15 12:50:57;;;;;;;8.13;6.18;;;16.10;99.90;;;;;;7255055;19;20321;-81
2022/03/15 12:53:54;;;;;;;8.63;6.30;;;16.00;99.90;;;;;;7373687;19;20316;-82
2022/03/15 12:57:22;;;;;;;6.15;5.55;;;16.10;99.90;;;;;;7193843;19;2004665;-80
2022/03/15 13:00:45;;;;;;;9.40;6.83;;;16.20;99.90;;;;;;7309013;19;20423;-80
2022/03/15 13:03:57;;;;;;;10.00;6.25;;;16.40;99.90;;;;;;7308095;19;20313;-81
2022/03/15 13:07:04;;;;;;;6.60;5.78;;;16.60;99.90;;;;;;7266968;19;2004180;-81
2022/03/15 13:10:05;;;;;;;7.50;5.85;;;16.70;99.90;;;;;;7307066;19;20748;-80
2022/03/15 13:12:48;;;;;;;9.07;6.30;;;16.70;99.90;;;;;;7372920;19;20349;-80
2022/03/15 13:16:08;;;;;;;6.25;5.00;;;17.10;99.90;;;;;;7171038;19;2004733;-80
2022/03/15 13:18:45;;;;;;;10.10;6.43;;;17.30;99.90;;;;;;7350471;19;20348;-80
2022/03/15 13:21:33;;;;;;;7.20;5.97;;;17.60;99.90;;;;;;7333454;19;20324;-80
2022/03/15 13:25:01;;;;;;;6.00;5.32;;;17.50;99.90;;;;;;7263816;19;2004567;-79
2022/03/15 13:27:46;;;;;;;7.20;5.13;;;17.70;99.90;;;;;;7211719;19;2003889;-80
2022/03/15 13:30:18;;;;;;;7.95;5.80;;;18.00;99.90;;;;;;7229812;19;2004348;-81
2022/03/15 13:33:45;;;;;;;7.53;5.30;;;18.20;99.90;;;;;;7256477;19;2004353;-80
2022/03/15 13:36:32;;;;;;;5.87;5.27;;;17.70;99.90;;;;;;7388304;19;20344;-80